Time;durP1;ratioP1;P1;durP2;ratioP2;P2;SDS_P1;SDS_P2;PMS_P1;PMS_P2;Temp;Humidity;BMP_temperature;BMP_pressure;BME280_temperature;BME280_humidity;BME280_pressure;Samples;Min_cycle;Max_cycle;Signal;HPM_P1;HPM_P2
2023/10/03 00:02:01;;;;;;;73.45;39.58;;;;;;;16.66;100.00;101233.94;4937826;29;20263;-43
2023/10/03 00:04:27;;;;;;;70.13;39.88;;;;;;;16.61;100.00;101219.81;4935676;29;20211;-45
2023/10/03 00:06:52;;;;;;;74.30;39.42;;;;;;;16.60;100.00;101215.38;4935484;29;20646;-39
2023/10/03 00:09:18;;;;;;;74.95;40.67;;;;;;;16.53;100.00;101214.84;4950902;29;20602;-43
2023/10/03 00:11:43;;;;;;;72.68;38.83;;;;;;;16.46;100.00;101203.50;4934501;29;20207;-43
2023/10/03 00:14:11;;;;;;;74.38;39.90;;;;;;;16.48;100.00;101204.25;4935991;29;20231;-45
2023/10/03 00:16:37;;;;;;;80.57;42.47;;;;;;;16.45;100.00;101199.03;4935712;29;20191;-42
2023/10/03 00:19:03;;;;;;;68.05;38.67;;;;;;;16.45;100.00;101196.34;4950205;29;20171;-41
2023/10/03 00:21:29;;;;;;;67.35;40.35;;;;;;;16.44;100.00;101200.00;4934424;29;20647;-43
2023/10/03 00:23:55;;;;;;;77.50;42.80;;;;;;;16.46;100.00;101197.19;4935835;29;20195;-41
2023/10/03 00:26:22;;;;;;;77.25;39.70;;;;;;;16.40;100.00;101184.91;4935991;29;20175;-41
2023/10/03 00:28:49;;;;;;;72.25;41.67;;;;;;;16.38;100.00;101177.84;4935984;29;20175;-44
2023/10/03 00:31:15;;;;;;;75.07;41.97;;;;;;;16.29;100.00;101165.72;4935285;29;20211;-43
2023/10/03 00:33:41;;;;;;;73.60;40.97;;;;;;;16.25;100.00;101167.72;4950044;29;20198;-42
2023/10/03 00:36:18;;;;;;;72.93;41.15;;;;;;;16.25;100.00;101166.88;4935628;29;20176;-43
2023/10/03 00:38:45;;;;;;;65.88;38.67;;;;;;;16.20;100.00;101163.53;4935280;29;20175;-44
2023/10/03 00:41:12;;;;;;;66.85;39.70;;;;;;;16.23;100.00;101155.25;4949791;29;20539;-44
2023/10/03 00:44:01;;;;;;;74.88;43.20;;;;;;;16.18;100.00;101149.22;4933786;29;20215;-42
2023/10/03 00:46:29;;;;;;;70.97;41.85;;;;;;;16.16;100.00;101157.44;4935190;29;20654;-44
2023/10/03 00:48:56;;;;;;;78.03;41.78;;;;;;;16.14;100.00;101142.28;4949571;29;20657;-42
2023/10/03 00:51:22;;;;;;;74.72;40.72;;;;;;;16.12;100.00;101147.75;4935026;29;20736;-42
2023/10/03 00:53:50;;;;;;;79.00;42.17;;;;;;;16.13;100.00;101143.22;4934873;29;20198;-42
2023/10/03 00:56:16;;;;;;;68.40;40.53;;;;;;;16.16;100.00;101133.09;4935032;29;20179;-42
2023/10/03 00:58:42;;;;;;;73.82;42.17;;;;;;;16.12;100.00;101131.53;4949308;28;20179;-43
2023/10/03 01:01:09;;;;;;;79.03;43.17;;;;;;;16.08;100.00;101113.75;4933492;29;20182;-43
2023/10/03 01:03:39;;;;;;;75.95;42.75;;;;;;;16.07;100.00;101109.31;4934942;29;20646;-45
2023/10/03 01:06:09;;;;;;;72.78;41.85;;;;;;;16.07;100.00;101106.59;4934586;29;20171;-43
2023/10/03 01:08:36;;;;;;;73.78;42.42;;;;;;;16.04;100.00;101096.81;4934764;29;20215;-41
2023/10/03 01:11:15;;;;;;;80.85;43.70;;;;;;;16.05;100.00;101089.59;4934590;29;20191;-42
2023/10/03 01:13:41;;;;;;;77.97;43.08;;;;;;;16.07;100.00;101084.97;4934221;29;20912;-41
2023/10/03 01:16:07;;;;;;;80.05;43.75;;;;;;;16.07;100.00;101079.56;4934441;29;20206;-41
2023/10/03 01:18:37;;;;;;;75.68;43.28;;;;;;;16.04;100.00;101079.72;4934595;29;20647;-44
2023/10/03 01:21:04;;;;;;;75.90;43.70;;;;;;;15.97;100.00;101068.41;4934924;29;20626;-42
2023/10/03 01:23:39;;;;;;;75.53;44.15;;;;;;;16.00;100.00;101064.66;4934619;29;20195;-43
2023/10/03 01:26:05;;;;;;;73.47;42.30;;;;;;;16.00;100.00;101057.41;4934637;29;20248;-42
2023/10/03 01:28:30;;;;;;;75.47;43.30;;;;;;;16.01;100.00;101052.91;4933085;29;20194;-43
2023/10/03 01:30:57;;;;;;;75.10;44.10;;;;;;;16.03;100.00;101059.09;4934534;29;20250;-42
2023/10/03 01:33:26;;;;;;;73.40;42.92;;;;;;;15.96;100.00;101053.16;4934269;29;20183;-43
2023/10/03 01:35:53;;;;;;;73.70;42.15;;;;;;;15.97;100.00;101048.63;4933348;29;20671;-43
2023/10/03 01:38:19;;;;;;;73.03;42.10;;;;;;;16.00;100.00;101043.88;4934099;29;20254;-40
2023/10/03 01:40:51;;;;;;;84.05;46.33;;;;;;;15.94;100.00;101033.47;4932745;29;20246;-38
2023/10/03 01:43:16;;;;;;;77.80;45.47;;;;;;;15.93;100.00;101026.28;4933982;29;20203;-43
2023/10/03 01:45:42;;;;;;;75.38;46.00;;;;;;;15.93;100.00;101025.44;4934219;29;20210;-42
2023/10/03 01:48:08;;;;;;;76.80;45.40;;;;;;;15.90;100.00;101015.69;4934106;29;20538;-47
2023/10/03 01:50:36;;;;;;;70.88;43.78;;;;;;;15.96;100.00;101007.22;4933926;29;20203;-42
2023/10/03 01:53:02;;;;;;;78.57;45.33;;;;;;;15.89;100.00;101018.47;4933825;29;20250;-44
2023/10/03 01:55:28;;;;;;;77.45;44.78;;;;;;;15.88;100.00;101005.91;4934039;29;20164;-41
2023/10/03 01:57:54;;;;;;;78.28;46.22;;;;;;;15.86;100.00;101006.00;4932707;29;20187;-42
2023/10/03 02:02:50;;;;;;;78.30;44.97;;;;;;;15.83;100.00;100995.34;4948245;29;20640;-43
2023/10/03 02:05:19;;;;;;;80.40;43.90;;;;;;;15.88;100.00;100984.31;4933681;29;20184;-41
2023/10/03 02:07:47;;;;;;;75.55;42.63;;;;;;;15.83;100.00;100987.25;4948280;28;20183;-42
2023/10/03 02:10:13;;;;;;;76.30;42.85;;;;;;;15.83;100.00;100984.53;4933711;29;20652;-42
2023/10/03 02:12:51;;;;;;;77.30;42.40;;;;;;;15.83;100.00;100966.53;4933719;29;20282;-41
2023/10/03 02:15:24;;;;;;;81.32;44.10;;;;;;;15.84;100.00;100948.47;4933653;29;20168;-42
2023/10/03 02:17:53;;;;;;;71.88;42.35;;;;;;;15.80;100.00;100944.22;4932320;29;20172;-43
2023/10/03 02:20:25;;;;;;;78.97;43.50;;;;;;;15.78;100.00;100936.19;4933395;29;20242;-44
2023/10/03 02:22:55;;;;;;;75.95;43.90;;;;;;;15.79;100.00;100934.38;4933432;29;20286;-41
2023/10/03 02:25:25;;;;;;;67.82;42.38;;;;;;;15.79;100.00;100920.88;4948298;28;20542;-42
2023/10/03 02:27:53;;;;;;;69.82;41.80;;;;;;;15.79;100.00;100921.72;4937385;29;20238;-40
2023/10/03 02:30:30;;;;;;;77.47;43.72;;;;;;;15.78;100.00;100913.72;4937389;29;20654;-44
2023/10/03 02:33:03;;;;;;;65.63;39.70;;;;;;;15.83;100.00;100900.78;4936065;29;20207;-42
2023/10/03 02:35:28;;;;;;;72.10;43.92;;;;;;;15.72;100.00;100889.75;4937445;29;20195;-42
2023/10/03 02:37:59;;;;;;;72.82;41.65;;;;;;;15.71;100.00;100872.69;4937360;29;20262;-42
2023/10/03 02:40:30;;;;;;;74.75;42.85;;;;;;;15.69;100.00;100874.56;4951903;29;20231;-40
2023/10/03 02:42:59;;;;;;;73.13;42.72;;;;;;;15.70;100.00;100861.91;4937480;29;20666;-43
2023/10/03 02:45:27;;;;;;;74.40;42.17;;;;;;;15.69;100.00;100849.38;4935896;29;20537;-43
2023/10/03 02:48:03;;;;;;;73.10;42.35;;;;;;;15.70;100.00;100848.41;4937088;29;20533;-42
2023/10/03 02:50:33;;;;;;;79.75;43.05;;;;;;;15.69;100.00;100825.09;4951561;29;20242;-42
2023/10/03 02:53:04;;;;;;;73.70;40.67;;;;;;;15.72;100.00;100806.91;4937064;29;20582;-40
2023/10/03 02:55:29;;;;;;;74.18;41.17;;;;;;;15.68;100.00;100808.00;4937383;29;20206;-42
2023/10/03 02:57:55;;;;;;;79.68;40.95;;;;;;;15.72;100.00;100795.22;4935635;29;20223;-41
2023/10/03 03:00:21;;;;;;;70.28;39.17;;;;;;;15.72;100.00;100792.50;4951581;29;20207;-42
2023/10/03 03:02:47;;;;;;;71.05;39.45;;;;;;;15.72;100.00;100779.00;4935457;29;20199;-41
2023/10/03 03:05:18;;;;;;;73.68;39.13;;;;;;;15.75;100.00;100768.03;4935379;29;20662;-44
2023/10/03 03:07:48;;;;;;;65.25;37.28;;;;;;;15.74;100.00;100759.06;4935435;29;20180;-42
2023/10/03 03:10:17;;;;;;;73.03;37.17;;;;;;;15.78;100.00;100759.72;4936269;29;20172;-41
2023/10/03 03:12:46;;;;;;;68.65;37.65;;;;;;;15.77;100.00;100748.06;4953102;29;20764;-41
2023/10/03 03:15:21;;;;;;;66.03;37.20;;;;;;;15.80;100.00;100744.28;4936784;29;20274;-42
2023/10/03 03:17:48;;;;;;;60.15;35.20;;;;;;;15.81;100.00;100740.66;4938393;29;20171;-42
2023/10/03 03:20:18;;;;;;;62.78;35.20;;;;;;;15.80;100.00;100718.13;4937410;29;20188;-43
2023/10/03 03:22:48;;;;;;;60.33;34.72;;;;;;;15.81;100.00;100687.47;4937172;29;20558;-41
2023/10/03 03:25:23;;;;;;;56.60;32.92;;;;;;;15.80;100.00;100668.66;4936892;29;20606;-43
2023/10/03 03:27:49;;;;;;;55.85;31.40;;;;;;;15.82;100.00;100650.50;4936453;29;20736;-41
2023/10/03 03:32:49;;;;;;;56.00;30.90;;;;;;;15.88;100.00;100638.47;4936727;29;20210;-42
2023/10/03 03:35:15;;;;;;;57.78;29.67;;;;;;;15.88;100.00;100612.31;4936195;29;20184;-43
2023/10/03 03:37:40;;;;;;;49.75;27.42;;;;;;;15.92;100.00;100594.94;4936106;29;20246;-43
2023/10/03 03:40:29;;;;;;;52.88;27.95;;;;;;;15.94;100.00;100592.13;4936370;29;20190;-43
2023/10/03 03:42:52;;;;;;;48.22;27.48;;;;;;;16.00;100.00;100578.22;4936137;29;20214;-41
2023/10/03 03:45:21;;;;;;;44.45;26.10;;;;;;;16.03;100.00;100569.94;4935844;29;20492;-42
2023/10/03 03:47:50;;;;;;;51.05;25.08;;;;;;;16.12;100.00;100576.56;4936064;29;20188;-42
2023/10/03 03:50:20;;;;;;;48.28;25.50;;;;;;;16.15;100.00;100542.06;4935925;29;20278;-43
2023/10/03 03:52:45;;;;;;;42.40;24.30;;;;;;;16.16;100.00;100543.81;4934619;29;20222;-43
2023/10/03 03:55:11;;;;;;;40.72;23.30;;;;;;;16.19;100.00;100567.94;4936254;29;20179;-43
2023/10/03 03:57:38;;;;;;;45.65;24.05;;;;;;;16.18;100.00;100568.91;4936064;29;20164;-43
2023/10/03 04:00:20;;;;;;;37.38;23.40;;;;;;;16.19;100.00;100577.88;4935740;29;20220;-43
2023/10/03 04:02:47;;;;;;;44.58;24.00;;;;;;;16.18;100.00;100582.44;4936077;29;20242;-43
2023/10/03 04:05:12;;;;;;;38.88;21.98;;;;;;;16.21;100.00;100576.81;4935784;29;20214;-42
2023/10/03 04:07:39;;;;;;;39.30;24.10;;;;;;;16.16;100.00;100557.34;4936137;29;20674;-43
2023/10/03 04:10:12;;;;;;;38.60;22.83;;;;;;;16.16;100.00;100557.34;4936251;29;20537;-43
2023/10/03 04:12:49;;;;;;;37.03;21.63;;;;;;;16.13;100.00;100552.13;4950352;28;20214;-43
2023/10/03 04:15:15;;;;;;;35.35;20.77;;;;;;;16.13;100.00;100546.72;4935737;29;20168;-44
2023/10/03 04:17:46;;;;;;;40.42;20.95;;;;;;;16.16;100.00;100532.13;4935945;29;20561;-42
2023/10/03 04:22:51;;;;;;;32.35;19.27;;;;;;;16.19;100.00;100518.44;4935918;29;20598;-43
2023/10/03 04:25:20;;;;;;;36.05;19.33;;;;;;;16.21;100.00;100519.19;4935786;29;20195;-44
2023/10/03 04:27:53;;;;;;;31.98;18.20;;;;;;;16.21;100.00;100497.56;4935497;29;20219;-44
2023/10/03 04:30:21;;;;;;;32.20;18.15;;;;;;;16.25;100.00;100469.34;4935416;29;20654;-42
2023/10/03 04:32:47;;;;;;;33.58;16.45;;;;;;;16.25;100.00;100467.50;4933944;29;20305;-43
2023/10/03 04:35:20;;;;;;;30.90;16.50;;;;;;;16.32;100.00;100477.91;4935255;29;20715;-43
2023/10/03 04:37:52;;;;;;;28.55;15.35;;;;;;;16.32;100.00;100464.41;4935431;29;20259;-42
2023/10/03 04:40:23;;;;;;;24.58;15.10;;;;;;;16.35;100.00;100456.06;4935215;29;20175;-43
2023/10/03 04:42:53;;;;;;;26.10;15.32;;;;;;;16.33;100.00;100452.59;4935284;29;20198;-43
2023/10/03 04:45:19;;;;;;;26.63;15.43;;;;;;;16.31;100.00;100431.09;4935153;29;20231;-43
2023/10/03 04:47:47;;;;;;;23.20;13.68;;;;;;;16.29;100.00;100419.53;4935119;29;20183;-43
2023/10/03 04:50:17;;;;;;;24.00;13.47;;;;;;;16.26;100.00;100398.09;4934182;29;20163;-43
2023/10/03 04:52:43;;;;;;;28.35;14.27;;;;;;;16.24;100.00;100381.09;4934953;29;20954;-43
2023/10/03 04:55:09;;;;;;;24.80;13.40;;;;;;;16.20;100.00;100363.38;4935012;29;20176;-43
2023/10/03 04:57:34;;;;;;;24.90;13.32;;;;;;;16.21;100.00;100357.00;4935063;29;20179;-42
2023/10/03 05:00:00;;;;;;;22.05;12.98;;;;;;;16.20;100.00;100355.25;4934736;29;20662;-42
2023/10/03 05:02:27;;;;;;;21.30;12.90;;;;;;;16.18;100.00;100351.78;4934735;29;20187;-41
2023/10/03 05:04:53;;;;;;;21.10;12.77;;;;;;;16.16;100.00;100330.31;4935014;29;20283;-43
2023/10/03 05:07:18;;;;;;;23.38;12.63;;;;;;;16.14;100.00;100329.53;4935148;29;20168;-42
2023/10/03 05:09:44;;;;;;;21.80;11.95;;;;;;;16.16;100.00;100318.59;4934947;29;20188;-44
2023/10/03 05:12:10;;;;;;;21.20;10.85;;;;;;;16.15;100.00;100312.34;4934579;29;20204;-45
2023/10/03 05:14:41;;;;;;;21.17;11.63;;;;;;;16.19;100.00;100321.09;4934655;29;20179;-41
2023/10/03 05:17:07;;;;;;;20.65;11.45;;;;;;;16.22;100.00;100318.19;4934680;29;20334;-43
2023/10/03 05:19:33;;;;;;;18.42;10.50;;;;;;;16.19;100.00;100319.25;4934636;29;20168;-43
2023/10/03 05:21:59;;;;;;;19.25;10.80;;;;;;;16.19;100.00;100300.34;4934408;29;20237;-42
2023/10/03 05:24:25;;;;;;;21.30;11.82;;;;;;;16.19;100.00;100281.41;4934593;29;20194;-41
2023/10/03 05:26:51;;;;;;;16.35;10.00;;;;;;;16.15;100.00;100292.56;4934832;28;20306;-44
2023/10/03 05:29:18;;;;;;;18.98;11.23;;;;;;;16.15;100.00;100279.03;4934507;29;20171;-40
2023/10/03 05:31:44;;;;;;;21.02;10.02;;;;;;;16.17;100.00;100271.69;4934232;29;20691;-40
2023/10/03 05:34:11;;;;;;;16.52;10.98;;;;;;;16.19;100.00;100272.47;4934439;28;20218;-41
2023/10/03 05:36:37;;;;;;;17.65;10.00;;;;;;;16.16;100.00;100259.13;4934482;29;20198;-43
2023/10/03 05:39:05;;;;;;;18.02;9.95;;;;;;;16.16;100.00;100257.31;4934765;29;20175;-43
2023/10/03 05:41:31;;;;;;;17.00;9.82;;;;;;;16.16;100.00;100240.22;4934209;29;20190;-43
2023/10/03 05:43:56;;;;;;;18.20;10.43;;;;;;;16.14;100.00;100240.34;4933922;29;20191;-42
2023/10/03 05:46:22;;;;;;;17.17;9.98;;;;;;;16.16;100.00;100226.72;4933957;29;20633;-43
2023/10/03 05:48:47;;;;;;;17.17;10.30;;;;;;;16.11;100.00;100223.47;4933753;29;20195;-45
2023/10/03 05:51:13;;;;;;;19.90;10.25;;;;;;;16.09;100.00;100210.06;4933827;29;20258;-43
2023/10/03 05:53:41;;;;;;;20.58;10.07;;;;;;;16.08;100.00;100212.91;4933436;29;20211;-43
2023/10/03 05:56:10;;;;;;;15.55;9.48;;;;;;;16.08;100.00;100208.34;4948121;28;20183;-41
2023/10/03 05:58:37;;;;;;;17.38;9.82;;;;;;;16.10;100.00;100211.81;4933402;29;20199;-43
2023/10/03 06:01:04;;;;;;;17.40;9.18;;;;;;;16.11;100.00;100208.13;4933250;29;20197;-42
2023/10/03 06:03:30;;;;;;;17.85;9.52;;;;;;;16.19;100.00;100197.63;4933013;29;20203;-46
2023/10/03 06:05:55;;;;;;;17.67;10.00;;;;;;;16.14;100.00;100182.75;4931016;29;20234;-43
2023/10/03 06:08:21;;;;;;;17.42;9.02;;;;;;;16.14;100.00;100189.00;4947981;29;20171;-43
2023/10/03 06:10:49;;;;;;;18.23;9.45;;;;;;;16.13;100.00;100195.38;4933540;29;20270;-44
2023/10/03 06:13:15;;;;;;;17.83;9.35;;;;;;;16.17;100.00;100196.03;4933150;29;20589;-44
2023/10/03 06:15:42;;;;;;;17.98;9.50;;;;;;;16.18;100.00;100206.72;4931943;29;20227;-42
2023/10/03 06:18:10;;;;;;;16.30;8.85;;;;;;;16.21;100.00;100214.59;4933157;29;20548;-41
2023/10/03 06:20:35;;;;;;;17.67;9.43;;;;;;;16.34;100.00;100194.81;4931675;29;20171;-38
2023/10/03 06:23:02;;;;;;;16.35;8.98;;;;;;;16.32;100.00;100186.81;4933949;29;20638;-40
2023/10/03 06:25:29;;;;;;;18.38;9.35;;;;;;;16.37;100.00;100184.63;4934932;29;20175;-43
2023/10/03 06:27:54;;;;;;;16.20;9.18;;;;;;;16.39;100.00;100182.66;4934458;29;20262;-45
2023/10/03 06:30:20;;;;;;;15.65;9.25;;;;;;;16.43;100.00;100184.19;4933471;29;20274;-44
2023/10/03 06:32:45;;;;;;;18.95;9.43;;;;;;;16.45;100.00;100187.63;4933712;29;20207;-41
2023/10/03 06:35:12;;;;;;;18.40;9.15;;;;;;;16.44;100.00;100168.81;4933491;29;20198;-43
2023/10/03 06:37:38;;;;;;;17.35;9.68;;;;;;;16.43;100.00;100165.25;4933539;29;20179;-42
2023/10/03 06:40:07;;;;;;;19.45;10.00;;;;;;;16.45;100.00;100167.84;4933086;29;20167;-43
2023/10/03 06:42:37;;;;;;;18.75;9.20;;;;;;;16.52;100.00;100179.06;4933103;29;20205;-42
2023/10/03 06:45:08;;;;;;;17.63;9.68;;;;;;;16.54;100.00;100180.69;4933287;29;20180;-44
2023/10/03 06:47:35;;;;;;;22.60;10.35;;;;;;;16.60;100.00;100171.28;4933633;29;20172;-43
2023/10/03 06:50:00;;;;;;;18.25;9.73;;;;;;;16.59;100.00;100178.50;4933261;29;20258;-42
2023/10/03 06:52:26;;;;;;;16.40;8.98;;;;;;;16.62;100.00;100161.22;4932884;28;20286;-46
2023/10/03 06:54:51;;;;;;;20.75;10.38;;;;;;;16.65;100.00;100158.25;4932879;29;20194;-43
2023/10/03 06:57:17;;;;;;;21.65;9.48;;;;;;;16.73;100.00;100155.00;4933106;28;20164;-43
2023/10/03 06:59:42;;;;;;;18.10;10.10;;;;;;;16.78;100.00;100141.97;4932749;29;20179;-43
2023/10/03 07:02:08;;;;;;;21.17;10.13;;;;;;;16.78;100.00;100132.00;4932418;29;20288;-43
2023/10/03 07:04:34;;;;;;;16.98;10.00;;;;;;;16.82;100.00;100144.38;4933079;29;20642;-41
2023/10/03 07:06:59;;;;;;;20.45;10.93;;;;;;;16.86;100.00;100136.91;4947723;29;20191;-43
2023/10/03 07:09:25;;;;;;;18.55;10.10;;;;;;;16.92;100.00;100136.41;4932946;29;20171;-43
2023/10/03 07:11:50;;;;;;;15.77;10.23;;;;;;;16.94;100.00;100128.19;4933103;29;20281;-42
2023/10/03 07:14:16;;;;;;;17.45;10.02;;;;;;;16.99;100.00;100126.88;4936486;29;20334;-43
2023/10/03 07:16:44;;;;;;;19.48;10.60;;;;;;;17.02;100.00;100118.50;4936550;29;20582;-42
2023/10/03 07:19:16;;;;;;;19.70;10.02;;;;;;;17.09;100.00;100105.34;4936560;29;20194;-42
2023/10/03 07:21:42;;;;;;;19.85;10.63;;;;;;;17.13;100.00;100104.13;4936460;29;20241;-42
2023/10/03 07:24:08;;;;;;;21.08;9.88;;;;;;;17.11;100.00;100100.69;4936276;29;20554;-42
2023/10/03 07:26:34;;;;;;;20.85;10.50;;;;;;;17.15;100.00;100101.31;4936337;29;20175;-40
2023/10/03 07:29:01;;;;;;;21.10;10.40;;;;;;;17.20;100.00;100105.38;4935073;29;20250;-42
2023/10/03 07:31:28;;;;;;;21.88;11.55;;;;;;;17.26;100.00;100107.63;4958379;23;20763;-84
2023/10/03 07:33:54;;;;;;;19.17;10.65;;;;;;;17.28;100.00;100118.34;4917370;29;20215;-84
2023/10/03 07:36:20;;;;;;;22.77;10.98;;;;;;;17.32;100.00;100106.28;4894166;29;20282;-84
2023/10/03 07:38:46;;;;;;;19.00;9.88;;;;;;;17.34;100.00;100106.16;4865515;29;20186;-84
2023/10/03 07:41:17;;;;;;;21.92;11.57;;;;;;;17.38;100.00;100107.63;4865642;29;20610;-84
2023/10/03 07:43:49;;;;;;;17.88;10.50;;;;;;;17.38;100.00;100104.94;4878709;29;20209;-84
2023/10/03 07:46:22;;;;;;;19.95;10.80;;;;;;;17.45;100.00;100111.63;4875723;29;20216;-84
2023/10/03 07:48:52;;;;;;;21.17;10.48;;;;;;;17.55;100.00;100101.75;4859627;29;20430;-84
2023/10/03 07:51:19;;;;;;;21.15;10.40;;;;;;;17.55;100.00;100119.88;4869948;29;20289;-84
2023/10/03 07:53:47;;;;;;;20.70;10.95;;;;;;;17.53;100.00;100111.84;4880860;29;20210;-84
2023/10/03 07:56:25;;;;;;;21.52;10.95;;;;;;;17.61;100.00;100089.59;4848042;29;20203;-84
2023/10/03 07:58:53;;;;;;;22.98;11.45;;;;;;;17.66;100.00;100084.66;4864493;29;20569;-84
2023/10/03 08:01:20;;;;;;;20.88;10.48;;;;;;;17.73;100.00;100098.56;4869501;29;20182;-85
2023/10/03 08:03:45;;;;;;;21.80;10.77;;;;;;;17.77;100.00;100108.19;4880442;29;20214;-84
2023/10/03 08:06:14;;;;;;;20.98;10.90;;;;;;;17.81;100.00;100079.84;4859739;29;20198;-84
2023/10/03 08:08:41;;;;;;;20.67;11.02;;;;;;;17.86;100.00;100093.91;4882877;29;21593;-85
2023/10/03 08:11:07;;;;;;;23.85;11.32;;;;;;;17.87;100.00;100093.81;4859047;29;20213;-84
2023/10/03 08:13:38;;;;;;;25.42;11.70;;;;;;;17.88;100.00;100097.38;4861646;29;20631;-82
2023/10/03 08:16:05;;;;;;;29.60;12.32;;;;;;;17.95;100.00;100100.44;4858917;29;20276;-83
2023/10/03 08:18:36;;;;;;;23.23;11.93;;;;;;;17.98;100.00;100092.94;4864668;29;20509;-82
2023/10/03 08:21:04;;;;;;;22.13;11.50;;;;;;;17.99;100.00;100096.50;4856160;29;20182;-83
2023/10/03 08:23:33;;;;;;;21.48;11.82;;;;;;;18.02;100.00;100083.59;4880208;29;20190;-83
2023/10/03 08:26:04;;;;;;;21.13;12.45;;;;;;;18.07;100.00;100089.47;4859815;29;20539;-82
2023/10/03 08:28:30;;;;;;;23.83;13.18;;;;;;;18.06;100.00;100090.47;4877504;29;20256;-82
2023/10/03 08:31:07;;;;;;;25.83;12.43;;;;;;;18.02;100.00;100094.44;4858363;29;20194;-82
2023/10/03 08:33:36;;;;;;;22.23;12.18;;;;;;;18.02;100.00;100086.28;4871240;29;20718;-82
2023/10/03 08:36:14;;;;;;;21.42;12.00;;;;;;;18.09;100.00;100089.38;4874165;29;20178;-82
2023/10/03 08:38:43;;;;;;;27.63;12.93;;;;;;;18.08;100.00;100093.94;4874036;29;20190;-82
2023/10/03 08:41:53;;;;;;;26.40;12.95;;;;;;;18.04;100.00;100097.88;4855816;29;20190;-85
2023/10/03 08:44:23;;;;;;;26.45;13.25;;;;;;;18.06;100.00;100103.16;4862177;29;20209;-86
2023/10/03 08:46:50;;;;;;;20.80;11.93;;;;;;;18.05;100.00;100121.28;4881243;29;20200;-84
2023/10/03 08:49:19;;;;;;;21.48;12.57;;;;;;;18.12;100.00;100099.94;4872061;29;20197;-83
2023/10/03 08:51:48;;;;;;;25.63;12.27;;;;;;;18.19;100.00;100097.59;4863955;29;20228;-84
2023/10/03 08:54:14;;;;;;;25.83;12.48;;;;;;;18.22;100.00;100095.50;4867584;29;20227;-84
2023/10/03 08:56:41;;;;;;;30.90;13.13;;;;;;;18.25;100.00;100097.09;4876280;29;20277;-84
2023/10/03 08:59:09;;;;;;;26.05;12.57;;;;;;;18.32;100.00;100084.75;4866288;29;20196;-85
2023/10/03 09:01:43;;;;;;;27.50;12.50;;;;;;;18.34;100.00;100096.34;4881984;29;20197;-85
2023/10/03 09:04:16;;;;;;;28.55;13.05;;;;;;;18.40;100.00;100103.13;4876435;29;20219;-84
2023/10/03 09:06:45;;;;;;;23.33;12.95;;;;;;;18.43;100.00;100076.59;4861120;29;20209;-84
2023/10/03 09:09:16;;;;;;;23.30;11.73;;;;;;;18.50;100.00;100083.25;4860504;29;20254;-84
2023/10/03 09:11:51;;;;;;;24.83;12.25;;;;;;;18.57;100.00;100072.72;4874885;29;20205;-85
2023/10/03 09:14:20;;;;;;;25.27;11.63;;;;;;;18.51;100.00;100086.81;4860295;29;20210;-85
2023/10/03 09:16:51;;;;;;;21.05;11.38;;;;;;;18.52;100.00;100093.97;4859749;29;20266;-84
2023/10/03 09:19:23;;;;;;;21.08;11.18;;;;;;;18.47;100.00;100091.63;4881394;29;20555;-85
2023/10/03 09:21:52;;;;;;;25.63;11.10;;;;;;;18.53;100.00;100088.41;4866933;29;20651;-84
2023/10/03 09:24:24;;;;;;;23.45;12.20;;;;;;;18.61;100.00;100071.50;4884996;23;20195;-44
2023/10/03 09:27:02;;;;;;;24.58;12.10;;;;;;;18.84;100.00;100079.56;4931508;29;20265;-45
2023/10/03 09:29:30;;;;;;;25.05;11.43;;;;;;;18.96;100.00;100073.09;4928633;29;20199;-45
2023/10/03 09:32:12;;;;;;;23.02;12.32;;;;;;;19.11;100.00;100068.19;4928936;29;20682;-46
2023/10/03 09:34:41;;;;;;;23.55;10.85;;;;;;;19.13;100.00;100058.06;4943436;28;20191;-45
2023/10/03 09:37:07;;;;;;;21.58;10.95;;;;;;;19.14;100.00;100059.78;4926017;29;20183;-43
2023/10/03 09:39:39;;;;;;;19.63;11.10;;;;;;;19.07;100.00;100056.75;4928387;29;20658;-45
2023/10/03 09:42:16;;;;;;;21.08;11.05;;;;;;;19.13;100.00;100058.94;4927481;29;20195;-45
2023/10/03 09:44:48;;;;;;;20.10;10.10;;;;;;;19.15;100.00;100053.34;4930959;29;20202;-46
2023/10/03 09:47:19;;;;;;;20.23;9.77;;;;;;;19.25;100.00;100058.88;4928108;29;20258;-45
2023/10/03 09:49:47;;;;;;;17.98;9.00;;;;;;;19.41;100.00;100053.78;4920732;29;20190;-44
2023/10/03 09:52:23;;;;;;;17.33;9.30;;;;;;;19.35;100.00;100052.50;4936202;28;20242;-44
2023/10/03 09:54:59;;;;;;;18.95;9.60;;;;;;;19.33;100.00;100061.78;4925619;29;20606;-45
2023/10/03 09:57:28;;;;;;;18.20;9.65;;;;;;;19.20;100.00;100061.09;4920417;29;20526;-43
2023/10/03 09:59:55;;;;;;;18.67;8.88;;;;;;;19.11;100.00;100054.59;4920408;29;20224;-46
2023/10/03 10:02:35;;;;;;;22.52;9.55;;;;;;;19.02;100.00;100068.97;4922166;29;20669;-45
2023/10/03 10:05:07;;;;;;;18.00;8.77;;;;;;;19.02;100.00;100068.97;4925018;29;20553;-46
2023/10/03 10:07:50;;;;;;;18.85;8.88;;;;;;;18.96;100.00;100050.50;4921547;29;20679;-46
2023/10/03 10:10:19;;;;;;;18.90;8.93;;;;;;;18.94;100.00;100069.66;4923038;29;20187;-43
2023/10/03 10:13:05;;;;;;;20.52;9.00;;;;;;;19.03;100.00;100078.88;4922145;29;20736;-46
2023/10/03 10:15:31;;;;;;;17.77;8.75;;;;;;;19.03;100.00;100062.56;4920504;29;20192;-45
2023/10/03 10:17:56;;;;;;;18.35;8.07;;;;;;;19.03;100.00;100060.72;4927350;29;20176;-45
2023/10/03 10:20:27;;;;;;;16.05;8.10;;;;;;;19.07;100.00;100042.31;4921076;29;20267;-46
2023/10/03 10:22:58;;;;;;;15.20;7.55;;;;;;;19.01;100.00;100067.28;4922882;29;20756;-43
2023/10/03 10:25:41;;;;;;;17.60;8.38;;;;;;;18.84;100.00;100066.84;4924308;29;20290;-44
2023/10/03 10:28:26;;;;;;;17.23;7.18;;;;;;;18.89;100.00;100071.88;4925200;29;20336;-45
2023/10/03 10:31:22;;;;;;;15.50;7.07;;;;;;;18.91;100.00;100061.75;4917713;29;20675;-47
2023/10/03 10:33:55;;;;;;;14.30;6.40;;;;;;;18.88;100.00;100070.16;4938080;28;20211;-44
2023/10/03 10:36:21;;;;;;;13.45;6.80;;;;;;;18.84;100.00;100088.56;4923564;29;20187;-44
2023/10/03 10:38:49;;;;;;;18.88;5.90;;;;;;;18.96;100.00;100085.78;4919835;29;20184;-46
2023/10/03 10:41:17;;;;;;;13.00;5.78;;;;;;;18.89;100.00;100080.03;4918049;29;20188;-46
2023/10/03 10:44:08;;;;;;;10.60;5.72;;;;;;;18.84;100.00;100079.56;4922074;29;20229;-43
2023/10/03 10:46:46;;;;;;;7.68;4.63;;;;;;;18.80;100.00;100080.81;4937643;28;20542;-45
2023/10/03 10:49:30;;;;;;;11.30;4.43;;;;;;;18.68;100.00;100099.81;4926798;29;20198;-44
2023/10/03 10:52:06;;;;;;;16.83;4.28;;;;;;;18.62;100.00;100096.75;4923503;29;20207;-45
2023/10/03 10:54:33;;;;;;;11.05;4.15;;;;;;;18.66;100.00;100098.22;4923975;29;20194;-45
2023/10/03 10:57:03;;;;;;;8.85;4.13;;;;;;;18.51;100.00;100114.78;4926497;29;20214;-44
2023/10/03 10:59:31;;;;;;;10.82;4.00;;;;;;;18.27;100.00;100112.25;4924919;29;20188;-44
2023/10/03 11:01:58;;;;;;;10.30;3.50;;;;;;;18.19;100.00;100114.75;4920524;29;20180;-46
2023/10/03 11:04:25;;;;;;;9.00;3.33;;;;;;;18.04;100.00;100137.69;4924266;29;20304;-45
2023/10/03 11:06:52;;;;;;;6.97;3.20;;;;;;;17.98;100.00;100166.13;4922088;29;20299;-46
2023/10/03 11:09:22;;;;;;;12.48;3.85;;;;;;;17.80;100.00;100167.53;4927030;29;20194;-44
2023/10/03 11:11:51;;;;;;;11.48;3.13;;;;;;;17.80;100.00;100190.09;4924673;29;20695;-46
2023/10/03 11:14:29;;;;;;;13.85;3.20;;;;;;;17.74;100.00;100209.53;4921227;29;20215;-45
2023/10/03 11:16:56;;;;;;;7.63;2.35;;;;;;;17.64;100.00;100209.38;4938019;23;20223;-43
2023/10/03 11:19:23;;;;;;;6.97;2.28;;;;;;;17.47;100.00;100223.38;4927561;28;20306;-44
2023/10/03 11:21:48;;;;;;;5.07;1.40;;;;;;;17.35;100.00;100246.00;4928900;29;20175;-46